createdAt,value
2023-02-27T00:00:22.872Z,102128.75
2023-02-27T00:02:51.520Z,102131.47
2023-02-27T00:05:19.134Z,102129.81
2023-02-27T00:07:45.473Z,102126.28
2023-02-27T00:10:12.777Z,102135.22
2023-02-27T00:12:39.290Z,102130.03
2023-02-27T00:15:07.407Z,102126.53
2023-02-27T00:17:34.073Z,102123.06
2023-02-27T00:20:00.545Z,102120.47
2023-02-27T00:22:27.386Z,102119.63
2023-02-27T00:24:53.795Z,102111.81
2023-02-27T00:27:20.145Z,102113.75
2023-02-27T00:29:46.698Z,102113.81
2023-02-27T00:32:13.103Z,102120.97
2023-02-27T00:34:39.544Z,102116.59
2023-02-27T00:37:05.898Z,102120.25
2023-02-27T00:39:32.347Z,102114.16
2023-02-27T00:41:58.724Z,102113.34
2023-02-27T00:44:25.061Z,102115.22
2023-02-27T00:46:51.519Z,102110.03
2023-02-27T00:49:17.977Z,102108.38
2023-02-27T00:51:44.300Z,102107.63
2023-02-27T00:54:10.741Z,102111.31
2023-02-27T00:56:37.185Z,102111.44
2023-02-27T00:59:04.069Z,102117.03
2023-02-27T01:01:30.430Z,102109.28
2023-02-27T01:03:56.734Z,102112.25
2023-02-27T01:06:23.045Z,102111.63
2023-02-27T01:08:49.438Z,102115.38
2023-02-27T01:11:15.812Z,102118.31
2023-02-27T01:13:44.240Z,102112.34
2023-02-27T01:16:11.466Z,102110.81
2023-02-27T01:18:38.057Z,102111.94
2023-02-27T01:21:04.957Z,102118.34
2023-02-27T01:23:31.348Z,102113.22
2023-02-27T01:25:57.697Z,102120.41
2023-02-27T01:28:24.103Z,102121.47
2023-02-27T01:30:50.509Z,102125.94
2023-02-27T01:33:17.469Z,102129.66
2023-02-27T01:35:43.861Z,102124.44
2023-02-27T01:38:10.224Z,102130.72
2023-02-27T01:40:41.324Z,102133.44
2023-02-27T01:43:15.062Z,102141.53
2023-02-27T01:45:42.664Z,102132.81
2023-02-27T01:48:24.357Z,102133.75
2023-02-27T01:50:55.594Z,102119.72
2023-02-27T01:53:26.038Z,102117.19
2023-02-27T01:56:02.289Z,102122.53
2023-02-27T01:58:28.894Z,102132.25
2023-02-27T02:00:55.829Z,102136.72
2023-02-27T02:03:34.421Z,102135.88
2023-02-27T02:06:02.607Z,102138.59
2023-02-27T02:08:32.158Z,102132.50
2023-02-27T02:10:59.221Z,102137.78
2023-02-27T02:13:26.018Z,102131.69
2023-02-27T02:16:37.455Z,102127.34
2023-02-27T02:19:28.932Z,102130.88
2023-02-27T02:22:16.437Z,102133.63
2023-02-27T02:25:01.612Z,102132.81
2023-02-27T02:28:02.070Z,102134.75
2023-02-27T02:30:46.038Z,102126.84
2023-02-27T02:33:20.281Z,102121.69
2023-02-27T02:36:08.592Z,102128.81
2023-02-27T02:38:50.161Z,102121.00
2023-02-27T02:41:53.213Z,102127.34
2023-02-27T02:44:52.145Z,102122.19
2023-02-27T02:47:44.675Z,102127.56
2023-02-27T02:50:14.163Z,102131.25
2023-02-27T02:52:57.646Z,102122.56
2023-02-27T02:55:34.304Z,102127.06
2023-02-27T02:58:19.342Z,102123.56
2023-02-27T03:00:52.851Z,102125.44
2023-02-27T03:03:26.893Z,102130.00
2023-02-27T03:06:00.627Z,102127.50
2023-02-27T03:08:31.589Z,102126.75
2023-02-27T03:11:00.540Z,102120.69
2023-02-27T03:13:35.529Z,102127.88
2023-02-27T03:16:13.436Z,102132.34
2023-02-27T03:18:53.907Z,102137.72
2023-02-27T03:21:28.415Z,102127.28
2023-02-27T03:23:59.650Z,102132.69
2023-02-27T03:26:33.481Z,102127.53
2023-02-27T03:29:14.297Z,102128.50
2023-02-27T03:31:49.418Z,102131.16
2023-02-27T03:34:21.031Z,102129.47
2023-02-27T03:36:58.623Z,102137.41
2023-02-27T03:39:41.344Z,102132.16
2023-02-27T03:42:26.513Z,102141.00
2023-02-27T03:45:00.706Z,102145.44
2023-02-27T03:47:27.848Z,102137.56
2023-02-27T03:49:55.720Z,102145.47
2023-02-27T03:52:24.157Z,102151.72
2023-02-27T03:54:57.742Z,102147.38
2023-02-27T03:57:24.207Z,102150.97
2023-02-27T03:59:51.286Z,102152.75
2023-02-27T04:02:17.741Z,102155.44
2023-02-27T04:04:44.157Z,102157.25
2023-02-27T04:07:34.620Z,102154.72
2023-02-27T04:10:28.970Z,102164.41
2023-02-27T04:13:21.501Z,102165.38
2023-02-27T04:16:28.636Z,102163.69
2023-02-27T04:19:29.177Z,102171.72
2023-02-27T04:22:30.199Z,102167.38
2023-02-27T04:25:02.814Z,102175.28
2023-02-27T04:27:39.417Z,102174.38
2023-02-27T04:30:20.537Z,102174.50
2023-02-27T04:33:03.469Z,102179.78
2023-02-27T04:35:46.513Z,102173.66
2023-02-27T04:38:32.187Z,102179.88
2023-02-27T04:41:04.765Z,102183.44
2023-02-27T04:43:32.591Z,102182.63
2023-02-27T04:46:00.577Z,102181.75
2023-02-27T04:48:33.191Z,102185.25
2023-02-27T04:50:59.454Z,102172.09
2023-02-27T04:53:31.400Z,102176.50
2023-02-27T04:56:04.626Z,102179.97
2023-02-27T04:58:38.885Z,102181.75
2023-02-27T05:01:14.976Z,102182.66
2023-02-27T05:03:48.400Z,102188.78
2023-02-27T05:06:17.699Z,102199.41
2023-02-27T05:08:59.327Z,102196.78
2023-02-27T05:11:36.046Z,102203.00
2023-02-27T05:14:12.460Z,102203.09
2023-02-27T05:16:44.761Z,102208.41
2023-02-27T05:19:11.268Z,102221.69
2023-02-27T05:22:05.723Z,102227.06
2023-02-27T05:25:00.706Z,102223.59
2023-02-27T05:27:42.104Z,102224.56
2023-02-27T05:30:23.519Z,102236.09
2023-02-27T05:33:13.527Z,102237.94
2023-02-27T05:36:03.429Z,102239.75
2023-02-27T05:38:52.694Z,102233.66
2023-02-27T05:41:31.061Z,102241.53
2023-02-27T05:44:21.059Z,102236.28
2023-02-27T05:46:54.499Z,102230.16
2023-02-27T05:49:28.090Z,102228.47
2023-02-27T05:51:57.351Z,102226.75
2023-02-27T05:54:29.515Z,102218.03
2023-02-27T05:56:58.528Z,102218.91
2023-02-27T05:59:35.592Z,102219.00
2023-02-27T06:02:02.099Z,102219.88
2023-02-27T06:04:28.819Z,102232.19
2023-02-27T06:06:55.271Z,102231.38
2023-02-27T06:09:22.080Z,102232.28
2023-02-27T06:11:48.399Z,102238.47
2023-02-27T06:14:14.712Z,102239.38
2023-02-27T06:16:41.116Z,102240.31
2023-02-27T06:19:07.489Z,102239.47
2023-02-27T06:21:33.908Z,102243.91
2023-02-27T06:24:00.223Z,102250.09
2023-02-27T06:26:26.854Z,102253.66
2023-02-27T06:28:53.460Z,102247.50
2023-02-27T06:31:19.905Z,102255.41
2023-02-27T06:33:46.233Z,102247.50
2023-02-27T06:36:12.689Z,102259.88
2023-02-27T06:38:39.155Z,102255.47
2023-02-27T06:41:05.653Z,102260.72
2023-02-27T06:43:34.634Z,102257.22
2023-02-27T06:46:01.077Z,102264.19
2023-02-27T06:48:27.427Z,102254.50
2023-02-27T06:50:56.174Z,102259.69
2023-02-27T06:53:23.774Z,102254.31
2023-02-27T06:55:50.489Z,102254.22
2023-02-27T06:58:17.608Z,102256.72
2023-02-27T07:00:44.252Z,102265.34
2023-02-27T07:03:11.945Z,102263.44
2023-02-27T07:05:38.272Z,102261.53
2023-02-27T07:08:04.963Z,102261.34
2023-02-27T07:10:31.316Z,102262.06
2023-02-27T07:12:57.634Z,102266.25
2023-02-27T07:15:24.294Z,102266.03
2023-02-27T07:17:50.633Z,102260.59
2023-02-27T07:20:17.139Z,102276.13
2023-02-27T07:22:43.505Z,102268.00
2023-02-27T07:25:10.044Z,102265.19
2023-02-27T07:27:36.387Z,102273.72
2023-02-27T07:30:02.859Z,102276.13
2023-02-27T07:32:29.200Z,102280.25
2023-02-27T07:34:55.573Z,102286.19
2023-02-27T07:37:21.929Z,102289.44
2023-02-27T07:39:48.286Z,102288.31
2023-02-27T07:42:14.648Z,102300.41
2023-02-27T07:44:41.086Z,102295.72
2023-02-27T07:47:07.486Z,102302.44
2023-02-27T07:49:33.872Z,102304.75
2023-02-27T07:52:00.292Z,102305.31
2023-02-27T07:54:27.490Z,102312.91
2023-02-27T07:56:53.860Z,102311.69
2023-02-27T07:59:20.292Z,102307.72
2023-02-27T08:01:46.662Z,102316.09
2023-02-27T08:04:13.054Z,102316.50
2023-02-27T08:06:39.942Z,102306.34
2023-02-27T08:09:06.312Z,102310.19
2023-02-27T08:11:32.661Z,102307.84
2023-02-27T08:14:00.854Z,102301.94
2023-02-27T08:16:28.329Z,102290.75
2023-02-27T08:18:55.094Z,102296.28
2023-02-27T08:21:21.466Z,102295.63
2023-02-27T08:23:47.879Z,102298.56
2023-02-27T08:26:14.496Z,102292.75
2023-02-27T08:28:41.301Z,102294.84
2023-02-27T08:31:07.690Z,102291.66
2023-02-27T08:33:34.473Z,102293.03
2023-02-27T08:36:00.839Z,102300.50
2023-02-27T08:38:27.763Z,102301.88
2023-02-27T08:40:54.181Z,102303.19
2023-02-27T08:43:23.774Z,102295.75
2023-02-27T08:45:50.876Z,102307.66
2023-02-27T08:48:18.435Z,102301.91
2023-02-27T08:50:46.426Z,102298.03
2023-02-27T08:53:13.218Z,102295.88
2023-02-27T08:55:39.659Z,102303.38
2023-02-27T08:58:06.119Z,102298.66
2023-02-27T09:00:32.782Z,102303.59
2023-02-27T09:03:00.450Z,102307.59
2023-02-27T09:05:27.596Z,102300.97
2023-02-27T09:07:53.981Z,102297.88
2023-02-27T09:10:20.318Z,102301.00
2023-02-27T09:12:49.095Z,102301.47
2023-02-27T09:15:15.567Z,102297.56
2023-02-27T09:17:41.942Z,102301.56
2023-02-27T09:20:09.517Z,102304.78
2023-02-27T09:22:36.002Z,102300.94
2023-02-27T09:25:02.857Z,102304.06
2023-02-27T09:27:29.211Z,102295.84
2023-02-27T09:29:56.317Z,102280.66
2023-02-27T09:32:23.368Z,102281.28
2023-02-27T09:34:49.879Z,102289.88
2023-02-27T09:37:19.068Z,102286.91
2023-02-27T09:39:46.418Z,102288.38
2023-02-27T09:42:21.884Z,102281.78
2023-02-27T09:44:52.238Z,102288.56
2023-02-27T09:47:26.684Z,102293.56
2023-02-27T09:50:22.209Z,102298.53
2023-02-27T09:52:48.565Z,102291.16
2023-02-27T09:55:21.444Z,102289.91
2023-02-27T09:58:06.742Z,102292.22
2023-02-27T10:00:49.603Z,102290.94
2023-02-27T10:03:53.433Z,102287.00
2023-02-27T10:06:26.790Z,102291.91
2023-02-27T10:09:12.405Z,102293.34
2023-02-27T10:12:00.138Z,102295.59
2023-02-27T10:14:41.970Z,102295.34
2023-02-27T10:17:38.683Z,102295.91
2023-02-27T10:20:10.572Z,102296.59
2023-02-27T10:22:42.920Z,102303.47
2023-02-27T10:25:29.690Z,102293.44
2023-02-27T10:28:08.783Z,102300.22
2023-02-27T10:30:36.808Z,102296.38
2023-02-27T10:33:18.987Z,102298.72
2023-02-27T10:35:45.999Z,102304.75
2023-02-27T10:38:21.110Z,102311.53
2023-02-27T10:40:48.251Z,102305.06
2023-02-27T10:43:18.974Z,102303.94
2023-02-27T10:45:45.349Z,102310.84
2023-02-27T10:48:12.434Z,102307.88
2023-02-27T10:50:42.494Z,102304.75
2023-02-27T10:53:24.703Z,102307.06
2023-02-27T10:56:07.876Z,102308.41
2023-02-27T10:58:36.777Z,102299.09
2023-02-27T11:01:06.953Z,102300.53
2023-02-27T11:03:42.170Z,102290.38
2023-02-27T11:06:19.618Z,102291.50
2023-02-27T11:09:18.099Z,102289.03
2023-02-27T11:11:44.486Z,102280.25
2023-02-27T11:14:32.763Z,102273.19
2023-02-27T11:17:01.774Z,102276.13
2023-02-27T11:19:38.351Z,102266.78
2023-02-27T11:22:15.462Z,102268.13
2023-02-27T11:24:42.195Z,102264.28
2023-02-27T11:27:26.985Z,102261.13
2023-02-27T11:30:20.621Z,102261.59
2023-02-27T11:32:49.792Z,102251.34
2023-02-27T11:35:25.348Z,102254.50
2023-02-27T11:37:54.261Z,102245.22
2023-02-27T11:40:25.154Z,102250.13
2023-02-27T11:43:03.699Z,102245.34
2023-02-27T11:46:19.453Z,102244.38
2023-02-27T11:48:27.445Z,102249.72
2023-02-27T11:51:06.980Z,102245.44
2023-02-27T11:53:48.479Z,102250.34
2023-02-27T11:56:20.897Z,102245.59
2023-02-27T11:59:30.047Z,102244.50
2023-02-27T12:02:01.387Z,102250.44
2023-02-27T12:04:41.401Z,102251.69
2023-02-27T12:07:31.038Z,102241.31
2023-02-27T12:10:12.582Z,102227.94
2023-02-27T12:12:55.302Z,102236.72
2023-02-27T12:15:30.206Z,102242.53
2023-02-27T12:18:07.899Z,102247.56
2023-02-27T12:21:02.338Z,102253.75
2023-02-27T12:23:40.989Z,102236.13
2023-02-27T12:26:19.033Z,102236.31
2023-02-27T12:28:56.998Z,102241.97
2023-02-27T12:31:35.443Z,102236.16
2023-02-27T12:34:27.242Z,102238.28
2023-02-27T12:36:54.162Z,102242.13
2023-02-27T12:39:23.637Z,102241.22
2023-02-27T12:41:59.114Z,102230.38
2023-02-27T12:44:37.859Z,102231.59
2023-02-27T12:47:32.190Z,102225.63
2023-02-27T12:50:15.128Z,102223.13
2023-02-27T12:53:20.456Z,102248.47
2023-02-27T12:56:01.701Z,102218.03
2023-02-27T12:59:06.004Z,102230.53
2023-02-27T13:01:47.893Z,102221.88
2023-02-27T13:04:23.721Z,102225.81
2023-02-27T13:06:53.197Z,102232.94
2023-02-27T13:09:40.808Z,102234.97
2023-02-27T13:12:07.061Z,102219.25
2023-02-27T13:14:51.741Z,102234.41
2023-02-27T13:17:29.711Z,102226.31
2023-02-27T13:20:19.232Z,102225.97
2023-02-27T13:22:53.125Z,102226.38
2023-02-27T13:25:20.268Z,102216.97
2023-02-27T13:27:55.571Z,102222.56
2023-02-27T13:30:27.339Z,102221.06
2023-02-27T13:32:58.890Z,102228.59
2023-02-27T13:35:40.264Z,102219.19
2023-02-27T13:38:46.889Z,102225.19
2023-02-27T13:41:27.739Z,102222.19
2023-02-27T13:44:20.395Z,102223.06
2023-02-27T13:46:47.136Z,102216.75
2023-02-27T13:49:28.776Z,102216.41
2023-02-27T13:51:59.407Z,102214.41
2023-02-27T13:54:29.347Z,102217.44
2023-02-27T13:56:57.594Z,102217.00
2023-02-27T13:59:36.518Z,102215.63
2023-02-27T14:02:31.066Z,102218.00
2023-02-27T14:05:01.553Z,102219.59
2023-02-27T14:07:33.670Z,102217.66
2023-02-27T14:10:05.402Z,102217.66
2023-02-27T14:12:46.329Z,102226.44
2023-02-27T14:15:15.788Z,102228.16
2023-02-27T14:17:44.877Z,102225.50
2023-02-27T14:20:17.362Z,102225.50
2023-02-27T14:23:15.284Z,102221.06
2023-02-27T14:25:45.441Z,102217.78
2023-02-27T14:28:30.558Z,102208.91
2023-02-27T14:31:01.787Z,102208.16
2023-02-27T14:33:40.630Z,102200.13
2023-02-27T14:36:18.882Z,102204.50
2023-02-27T14:38:45.936Z,102213.50
2023-02-27T14:41:21.326Z,102220.75
2023-02-27T14:43:57.512Z,102214.03
2023-02-27T14:46:23.978Z,102211.03
2023-02-27T14:49:02.610Z,102212.59
2023-02-27T14:51:35.875Z,102210.53
2023-02-27T14:54:23.912Z,102205.91
2023-02-27T14:56:59.107Z,102193.97
2023-02-27T14:59:34.583Z,102194.13
2023-02-27T15:02:04.287Z,102193.50
2023-02-27T15:04:32.734Z,102190.91
2023-02-27T15:07:00.238Z,102198.94
2023-02-27T15:09:44.553Z,102203.34
2023-02-27T15:12:17.649Z,102201.44
2023-02-27T15:14:49.258Z,102205.03
2023-02-27T15:17:19.181Z,102201.63
2023-02-27T15:19:52.369Z,102206.31
2023-02-27T15:22:39.799Z,102215.59
2023-02-27T15:25:25.633Z,102213.34
2023-02-27T15:27:52.400Z,102219.09
2023-02-27T15:30:21.627Z,102205.19
2023-02-27T15:32:47.957Z,102217.97
2023-02-27T15:35:24.489Z,102215.50
2023-02-27T15:37:57.029Z,102220.09
2023-02-27T15:40:31.904Z,102217.41
2023-02-27T15:42:59.341Z,102229.91
2023-02-27T15:45:35.231Z,102221.91
2023-02-27T15:48:02.968Z,102222.88
2023-02-27T15:50:37.074Z,102238.06
2023-02-27T15:53:12.062Z,102231.09
2023-02-27T15:55:44.762Z,102237.50
2023-02-27T15:58:26.257Z,102237.78
2023-02-27T16:01:00.973Z,102245.16
2023-02-27T16:03:42.328Z,102240.19
2023-02-27T16:06:18.036Z,102227.03
2023-02-27T16:08:52.609Z,102235.16
2023-02-27T16:11:30.576Z,102240.59
2023-02-27T16:13:57.793Z,102231.81
2023-02-27T16:16:35.006Z,102238.00
2023-02-27T16:19:27.105Z,102241.56
2023-02-27T16:22:12.655Z,102245.06
2023-02-27T16:24:39.001Z,102246.91
2023-02-27T16:27:05.647Z,102236.22
2023-02-27T16:29:37.001Z,102245.16
2023-02-27T16:32:04.017Z,102248.78
2023-02-27T16:34:45.528Z,102246.22
2023-02-27T16:37:43.232Z,102245.56
2023-02-27T16:40:20.390Z,102249.38
2023-02-27T16:42:46.833Z,102246.13
2023-02-27T16:45:18.828Z,102251.66
2023-02-27T16:47:49.155Z,102253.56
2023-02-27T16:50:22.910Z,102259.09
2023-02-27T16:52:49.247Z,102255.88
2023-02-27T16:55:15.727Z,102254.34
2023-02-27T16:57:42.126Z,102269.78
2023-02-27T17:00:13.329Z,102267.31
2023-02-27T17:02:39.774Z,102261.50
2023-02-27T17:05:06.359Z,102262.72
2023-02-27T17:07:33.153Z,102272.75
2023-02-27T17:10:00.350Z,102269.50
2023-02-27T17:12:27.351Z,102270.81
2023-02-27T17:14:53.879Z,102268.41
2023-02-27T17:17:20.208Z,102274.13
2023-02-27T17:19:46.633Z,102272.69
2023-02-27T17:22:13.089Z,102265.91
2023-02-27T17:24:39.493Z,102280.38
2023-02-27T17:27:05.828Z,102281.59
2023-02-27T17:29:32.182Z,102276.53
2023-02-27T17:31:58.567Z,102281.19
2023-02-27T17:34:25.070Z,102279.75
2023-02-27T17:36:53.109Z,102282.75
2023-02-27T17:39:19.549Z,102285.59
2023-02-27T17:41:46.313Z,102285.00
2023-02-27T17:44:13.237Z,102287.94
2023-02-27T17:46:40.516Z,102295.31
2023-02-27T17:49:07.526Z,102291.19
2023-02-27T17:51:34.078Z,102296.78
2023-02-27T17:54:03.573Z,102292.56
2023-02-27T17:56:30.206Z,102305.28
2023-02-27T17:58:57.534Z,102292.22
2023-02-27T18:01:26.229Z,102297.81
2023-02-27T18:03:54.210Z,102299.78
2023-02-27T18:06:21.678Z,102293.72
2023-02-27T18:08:49.342Z,102297.53
2023-02-27T18:11:18.698Z,102301.22
2023-02-27T18:13:45.702Z,102302.38
2023-02-27T18:16:12.895Z,102309.56
2023-02-27T18:18:42.113Z,102297.38
2023-02-27T18:21:12.794Z,102303.75
2023-02-27T18:23:39.826Z,102304.84
2023-02-27T18:26:07.133Z,102309.38
2023-02-27T18:28:34.784Z,102311.34
2023-02-27T18:31:01.174Z,102307.13
2023-02-27T18:33:27.549Z,102307.31
2023-02-27T18:35:54.438Z,102310.06
2023-02-27T18:38:20.765Z,102314.59
2023-02-27T18:40:47.168Z,102314.66
2023-02-27T18:43:13.966Z,102314.84
2023-02-27T18:45:41.098Z,102315.84
2023-02-27T18:48:07.844Z,102316.03
2023-02-27T18:50:34.762Z,102311.72
2023-02-27T18:53:01.250Z,102310.94
2023-02-27T18:55:27.595Z,102316.38
2023-02-27T18:57:54.016Z,102324.41
2023-02-27T19:00:21.904Z,102320.13
2023-02-27T19:02:48.371Z,102321.06
2023-02-27T19:05:14.863Z,102321.13
2023-02-27T19:07:42.468Z,102313.16
2023-02-27T19:10:10.165Z,102323.78
2023-02-27T19:12:36.797Z,102318.53
2023-02-27T19:15:04.285Z,102318.53
2023-02-27T19:17:30.610Z,102320.34
2023-02-27T19:19:57.000Z,102321.31
2023-02-27T19:22:23.405Z,102323.19
2023-02-27T19:24:50.128Z,102325.94
2023-02-27T19:27:17.174Z,102317.16
2023-02-27T19:29:43.853Z,102322.66
2023-02-27T19:32:10.678Z,102321.88
2023-02-27T19:34:37.126Z,102321.16
2023-02-27T19:37:03.526Z,102328.44
2023-02-27T19:39:29.952Z,102323.28
2023-02-27T19:41:56.629Z,102323.50
2023-02-27T19:44:23.157Z,102322.03
2023-02-27T19:46:52.056Z,102325.88
2023-02-27T19:49:19.758Z,102323.38
2023-02-27T19:51:46.145Z,102327.19
2023-02-27T19:54:13.681Z,102324.78
2023-02-27T19:56:40.118Z,102324.19
2023-02-27T19:59:06.460Z,102329.78
2023-02-27T20:01:36.196Z,102329.19
2023-02-27T20:04:03.493Z,102328.63
2023-02-27T20:06:33.178Z,102333.34
2023-02-27T20:09:00.292Z,102330.97
2023-02-27T20:11:31.462Z,102327.66
2023-02-27T20:13:58.579Z,102328.84
2023-02-27T20:16:28.148Z,102327.28
2023-02-27T20:18:55.027Z,102331.00
2023-02-27T20:21:24.030Z,102337.47
2023-02-27T20:23:51.808Z,102337.63
2023-02-27T20:26:31.694Z,102332.47
2023-02-27T20:29:01.464Z,102326.34
2023-02-27T20:31:30.528Z,102327.41
2023-02-27T20:33:58.202Z,102334.59
2023-02-27T20:36:24.645Z,102330.22
2023-02-27T20:38:51.081Z,102334.75
2023-02-27T20:41:20.520Z,102333.03
2023-02-27T20:43:48.151Z,102329.56
2023-02-27T20:46:20.423Z,102337.53
2023-02-27T20:48:47.271Z,102329.72
2023-02-27T20:51:19.904Z,102340.34
2023-02-27T20:53:48.821Z,102338.63
2023-02-27T20:56:15.667Z,102343.16
2023-02-27T20:58:42.120Z,102344.06
2023-02-27T21:01:10.534Z,102332.59
2023-02-27T21:03:41.427Z,102338.75
2023-02-27T21:06:10.952Z,102341.50
2023-02-27T21:08:39.257Z,102347.66
2023-02-27T21:11:15.176Z,102342.50
2023-02-27T21:13:42.116Z,102347.81
2023-02-27T21:16:10.486Z,102350.50
2023-02-27T21:18:38.050Z,102358.56
2023-02-27T21:21:06.461Z,102353.25
2023-02-27T21:23:34.321Z,102349.00
2023-02-27T21:26:00.797Z,102351.75
2023-02-27T21:28:27.215Z,102355.41
2023-02-27T21:30:54.650Z,102354.59
2023-02-27T21:33:22.325Z,102356.47
2023-02-27T21:35:48.830Z,102357.50
2023-02-27T21:38:16.377Z,102357.66
2023-02-27T21:40:42.910Z,102356.88
2023-02-27T21:43:09.623Z,102368.50
2023-02-27T21:45:41.367Z,102362.38
2023-02-27T21:48:08.179Z,102365.94
2023-02-27T21:50:35.882Z,102371.34
2023-02-27T21:53:02.365Z,102364.38
2023-02-27T21:55:28.803Z,102368.03
2023-02-27T21:57:55.252Z,102369.84
2023-02-27T22:00:25.368Z,102366.38
2023-02-27T22:02:51.991Z,102368.22
2023-02-27T22:05:18.626Z,102372.69
2023-02-27T22:07:45.185Z,102376.19
2023-02-27T22:10:11.703Z,102373.63
2023-02-27T22:12:38.027Z,102369.22
2023-02-27T22:15:05.285Z,102373.66
2023-02-27T22:17:31.642Z,102378.97
2023-02-27T22:19:58.053Z,102373.72
2023-02-27T22:22:24.481Z,102373.72
2023-02-27T22:24:50.923Z,102373.81
2023-02-27T22:27:17.353Z,102379.13
2023-02-27T22:29:43.697Z,102379.97
2023-02-27T22:32:10.301Z,102375.59
2023-02-27T22:34:36.786Z,102373.81
2023-02-27T22:37:03.205Z,102384.41
2023-02-27T22:39:29.743Z,102386.13
2023-02-27T22:41:56.958Z,102386.06
2023-02-27T22:44:23.414Z,102387.78
2023-02-27T22:46:50.330Z,102388.59
2023-02-27T22:49:22.147Z,102388.44
2023-02-27T22:51:51.127Z,102384.75
2023-02-27T22:54:18.884Z,102393.41
2023-02-27T22:56:45.380Z,102387.13
2023-02-27T22:59:11.872Z,102386.91
2023-02-27T23:01:38.336Z,102396.38
2023-02-27T23:04:08.273Z,102384.69
2023-02-27T23:06:37.296Z,102389.88
2023-02-27T23:09:06.196Z,102390.59
2023-02-27T23:11:32.830Z,102388.66
2023-02-27T23:13:59.390Z,102396.56
2023-02-27T23:16:26.109Z,102390.25
2023-02-27T23:18:54.718Z,102391.97
2023-02-27T23:21:24.213Z,102398.06
2023-02-27T23:23:53.291Z,102396.25
2023-02-27T23:26:20.147Z,102402.44
2023-02-27T23:28:46.578Z,102391.97
2023-02-27T23:31:13.094Z,102384.16
2023-02-27T23:33:39.545Z,102391.41
2023-02-27T23:36:06.304Z,102395.19
2023-02-27T23:38:32.786Z,102391.88
2023-02-27T23:41:05.314Z,102396.53
2023-02-27T23:43:50.386Z,102401.31
2023-02-27T23:46:16.725Z,102390.03
2023-02-27T23:48:43.664Z,102404.50
2023-02-27T23:51:11.438Z,102404.69
2023-02-27T23:53:40.303Z,102400.50
2023-02-27T23:56:14.325Z,102405.16
2023-02-27T23:58:40.872Z,102408.00
